Farmer, OH

2:31 PM EST on November 11, 2019 (GMT -0500)
Ney East | | Change Station
Active Advisory: Winter Weather Advisory

Elev 712 ft 41.38 °N, 84.51 °W | Updated 5 seconds ago

Snow
Snow
29.1 °F
Feels Like 24 °F
N
5
Wind Variable Wind from NNE
Gusts 7.0 mph

Today
High -- | Low -- °F
--% Chance of Precip.
Yesterday
High -- | Low -- °F
Precip. -- in
Pressure 30.05 in
Visibility 0.8 miles
Clouds Scattered Clouds 700 ft
Overcast 1400 ft
Windchill 24 °F
Dew Point 29 °F
Humidity 99%
Rainfall 0.00 in
Snow Depth Not available.
7:21 AM 5:22 PM
Waxing Gibbous, 99% visible
SPECI KDFI 111914Z AUTO 36012G20KT 3/4SM -SN BR SCT007 OVC014 M01/M03 A3005 RMK AO2 P0000 T10111033
Pressure 30.05 in
Visibility 0.8 miles
Clouds Scattered Clouds 700 ft
Overcast 1400 ft
Windchill 24 °F
Dew Point 29 °F
Humidity 99%
Rainfall 0.00 in
Snow Depth Not available.
7:21 AM 5:22 PM
Waxing Gibbous, 99% visible
SPECI KDFI 111914Z AUTO 36012G20KT 3/4SM -SN BR SCT007 OVC014 M01/M03 A3005 RMK AO2 P0000 T10111033

Get Your Daily Forecast Email!

Thanks for signing up!

Be on the lookout for a verification email in your inbox.

You'll start receiving severe weather alerts in your inbox..

×

10-Day Weather Forecast

Almanac

Astronomy

Nov. 11, 2019 Rise Set
Actual Time
Civil Twilight
Nautical Twilight
Astronomical Twilight
Moon
Length of Visible Light
Length of Day
Tomorrow will be .
, % of the Moon is Illuminated

Today's Extremes

State Highs State Lows

Community

WunderPhotos

Category 6

Welcome to Category 6. This is the collective home for Weather Underground's featured writeups by Dr. Jeff Masters (right), Bob Henson (left), Chris Burt, and other regular contributors.

Nearby

Air Quality

  Air Quality AQ Index Pollutant
Not available.

Snow Depth

Station Depth Elevation

Earthquake Activity

City Distance Mag. Time & Date
Minimum magnitude displayed is 2.5.

Coastal Water Temperatures

Place Temperature

Stations

Nearby Weather Stations

Station Location Temp. Windchill Dew Point Humidity Wind Precip. Elev Updated Type
                   

Watches & Warnings

Winter Weather Advisory
Issued: 8:55 AM CST Nov. 11, 2019 – National Weather Service

... Winter Weather Advisory now in effect until midnight EST
/11 PM CST/ tonight...

* what... snow expected. Total snow accumulations of 3 to 5
inches.

* Where... portions of northern Indiana and Northwest Ohio.

* When... until midnight EST /11 PM CST/ tonight.

* Impacts... plan on slippery Road conditions. The hazardous
conditions will impact the evening commute today.

* Additional details... a mix of rain and snow will quickly change
over to all snow late this morning into early this afternoon.
Snow will continue through the afternoon into early this
evening.

Precautionary/preparedness actions...

Slow down and use caution while traveling.